createdAt,value
2023-03-18T00:05:18.474Z,7.50
2023-03-18T00:10:40.722Z,7.50
2023-03-18T00:16:02.952Z,7.50
2023-03-18T00:21:24.779Z,7.40
2023-03-18T00:26:46.609Z,7.40
2023-03-18T00:32:09.242Z,7.30
2023-03-18T00:37:31.728Z,7.30
2023-03-18T00:43:07.862Z,7.20
2023-03-18T00:48:29.996Z,7.30
2023-03-18T00:53:56.225Z,7.20
2023-03-18T00:59:18.888Z,7.10
2023-03-18T01:04:40.499Z,7.20
2023-03-18T01:10:02.421Z,7.10
2023-03-18T01:15:25.091Z,7.10
2023-03-18T01:20:47.334Z,7.10
2023-03-18T01:26:11.035Z,7.00
2023-03-18T01:31:35.890Z,7.00
2023-03-18T01:37:04.549Z,7.00
2023-03-18T01:42:29.772Z,6.80
2023-03-18T01:47:52.168Z,6.80
2023-03-18T01:53:17.213Z,6.70
2023-03-18T01:58:46.316Z,6.70
2023-03-18T02:04:10.654Z,6.60
2023-03-18T02:09:35.436Z,6.60
2023-03-18T02:15:01.172Z,6.60
2023-03-18T02:21:00.059Z,6.70
2023-03-18T02:26:41.333Z,6.60
2023-03-18T02:32:06.216Z,6.70
2023-03-18T02:37:28.289Z,6.70
2023-03-18T02:42:51.633Z,6.60
2023-03-18T02:48:17.961Z,6.70
2023-03-18T02:53:40.252Z,6.60
2023-03-18T02:59:02.223Z,6.60
2023-03-18T03:04:25.741Z,6.50
2023-03-18T03:09:47.569Z,6.40
2023-03-18T03:15:10.657Z,6.40
2023-03-18T03:20:39.274Z,6.40
2023-03-18T03:26:00.609Z,6.30
2023-03-18T03:31:22.347Z,6.30
2023-03-18T03:36:44.772Z,6.30
2023-03-18T03:42:07.188Z,6.20
2023-03-18T03:47:28.707Z,6.20
2023-03-18T03:52:51.385Z,6.20
2023-03-18T03:58:13.003Z,6.10
2023-03-18T04:03:35.699Z,6.20
2023-03-18T04:09:00.851Z,6.10
2023-03-18T04:14:22.590Z,6.10
2023-03-18T04:19:44.685Z,6.10
2023-03-18T04:25:11.309Z,6.00
2023-03-18T04:30:34.768Z,6.10
2023-03-18T04:36:03.202Z,6.00
2023-03-18T04:41:25.722Z,5.80
2023-03-18T04:46:50.391Z,5.80
2023-03-18T04:52:12.804Z,5.90
2023-03-18T04:57:37.760Z,5.80
2023-03-18T05:03:03.825Z,5.80
2023-03-18T05:08:25.469Z,5.80
2023-03-18T05:13:47.643Z,5.90
2023-03-18T05:19:12.281Z,5.90
2023-03-18T05:24:43.340Z,5.80
2023-03-18T05:30:11.277Z,5.90
2023-03-18T05:35:40.302Z,5.90
2023-03-18T05:41:02.427Z,6.10
2023-03-18T05:46:30.665Z,6.10
2023-03-18T05:52:11.023Z,6.10
2023-03-18T05:57:38.947Z,6.10
2023-03-18T06:03:03.925Z,6.20
2023-03-18T06:08:25.492Z,6.20
2023-03-18T06:13:47.784Z,6.40
2023-03-18T06:19:11.952Z,6.50
2023-03-18T06:24:33.981Z,6.70
2023-03-18T06:29:55.982Z,6.80
2023-03-18T06:35:19.072Z,7.00
2023-03-18T06:40:40.860Z,7.20
2023-03-18T06:46:03.555Z,7.60
2023-03-18T06:51:25.670Z,7.80
2023-03-18T06:56:48.219Z,8.10
2023-03-18T07:02:13.305Z,8.30
2023-03-18T07:07:34.509Z,8.50
2023-03-18T07:12:57.370Z,8.80
2023-03-18T07:18:19.017Z,9.10
2023-03-18T07:23:41.746Z,9.30
2023-03-18T07:29:03.976Z,9.50
2023-03-18T07:34:25.800Z,9.70
2023-03-18T07:39:48.849Z,9.90
2023-03-18T07:45:14.316Z,10.10
2023-03-18T07:50:36.791Z,10.30
2023-03-18T07:55:58.040Z,10.50
2023-03-18T08:01:20.056Z,10.70
2023-03-18T08:06:41.695Z,11.00
2023-03-18T08:12:03.178Z,11.20
2023-03-18T08:17:24.901Z,11.40
2023-03-18T08:22:46.934Z,11.70
2023-03-18T08:28:08.439Z,12.00
2023-03-18T08:33:30.204Z,12.20
2023-03-18T08:38:52.139Z,12.50
2023-03-18T08:44:13.810Z,12.70
2023-03-18T08:49:35.650Z,13.20
2023-03-18T08:54:57.775Z,13.40
2023-03-18T09:00:20.387Z,13.70
2023-03-18T09:05:43.068Z,14.10
2023-03-18T09:11:04.750Z,14.40
2023-03-18T09:16:26.579Z,14.70
2023-03-18T09:21:48.215Z,15.10
2023-03-18T09:27:09.841Z,15.40
2023-03-18T09:32:31.767Z,15.70
2023-03-18T09:37:54.252Z,15.80
2023-03-18T09:43:23.464Z,16.00
2023-03-18T09:48:51.248Z,16.20
2023-03-18T09:54:47.998Z,16.20
2023-03-18T10:00:37.940Z,16.40
2023-03-18T10:06:08.113Z,16.40
2023-03-18T10:11:29.780Z,16.60
2023-03-18T10:17:01.916Z,16.60
2023-03-18T10:22:49.888Z,16.30
2023-03-18T10:28:26.291Z,16.50
2023-03-18T10:34:00.715Z,16.60
2023-03-18T10:39:26.091Z,16.70
2023-03-18T10:44:48.227Z,16.90
2023-03-18T10:50:32.132Z,17.10
2023-03-18T10:56:14.758Z,17.00
2023-03-18T11:01:38.756Z,17.00
2023-03-18T11:07:04.215Z,17.20
2023-03-18T11:12:32.095Z,17.30
2023-03-18T11:17:58.542Z,17.20
2023-03-18T11:23:56.321Z,17.20
2023-03-18T11:29:25.921Z,17.30
2023-03-18T11:35:00.787Z,17.40
2023-03-18T11:40:28.248Z,17.40
2023-03-18T11:46:01.339Z,17.50
2023-03-18T11:51:56.259Z,17.50
2023-03-18T11:57:27.724Z,17.50
2023-03-18T12:02:55.450Z,17.30
2023-03-18T12:08:23.164Z,17.10
2023-03-18T12:13:45.003Z,16.90
2023-03-18T12:19:28.400Z,16.70
2023-03-18T12:25:08.580Z,16.70
2023-03-18T12:30:39.988Z,16.80
2023-03-18T12:36:20.739Z,16.80
2023-03-18T12:41:48.085Z,16.90
2023-03-18T12:47:50.740Z,17.00
2023-03-18T12:53:33.680Z,17.20
2023-03-18T12:59:09.609Z,17.30
2023-03-18T13:04:36.109Z,17.40
2023-03-18T13:10:26.538Z,17.60
2023-03-18T13:15:52.932Z,18.00
2023-03-18T13:21:23.649Z,18.50
2023-03-18T13:27:08.784Z,18.60
2023-03-18T13:32:55.072Z,18.90
2023-03-18T13:38:44.992Z,19.00
2023-03-18T13:44:23.334Z,19.30
2023-03-18T13:49:45.852Z,19.30
2023-03-18T13:55:17.039Z,19.40
2023-03-18T14:00:40.638Z,19.70
2023-03-18T14:06:05.607Z,19.50
2023-03-18T14:11:47.136Z,19.50
2023-03-18T14:17:37.196Z,19.90
2023-03-18T14:23:25.001Z,19.70
2023-03-18T14:29:07.222Z,19.80
2023-03-18T14:34:33.798Z,19.30
2023-03-18T14:40:03.747Z,19.40
2023-03-18T14:45:33.905Z,19.50
2023-03-18T14:51:00.102Z,19.60
2023-03-18T14:56:29.491Z,19.30
2023-03-18T15:01:52.604Z,19.60
2023-03-18T15:07:14.808Z,19.50
2023-03-18T15:12:37.467Z,19.50
2023-03-18T15:18:04.247Z,19.70
2023-03-18T15:23:31.670Z,19.70
2023-03-18T15:29:04.524Z,19.80
2023-03-18T15:34:31.695Z,19.80
2023-03-18T15:39:56.308Z,19.90
2023-03-18T15:45:27.415Z,19.80
2023-03-18T15:50:57.412Z,19.90
2023-03-18T15:56:29.800Z,19.80
2023-03-18T16:01:55.643Z,19.70
2023-03-18T16:07:28.492Z,19.60
2023-03-18T16:12:56.904Z,19.60
2023-03-18T16:18:18.515Z,19.50
2023-03-18T16:23:41.091Z,19.50
2023-03-18T16:29:02.847Z,19.00
2023-03-18T16:34:25.186Z,18.60
2023-03-18T16:39:46.720Z,17.50
2023-03-18T16:45:14.379Z,17.00
2023-03-18T16:50:38.651Z,16.70
2023-03-18T16:56:10.442Z,16.30
2023-03-18T17:01:32.398Z,16.00
2023-03-18T17:06:55.210Z,15.60
2023-03-18T17:12:17.439Z,15.40
2023-03-18T17:17:39.622Z,14.70
2023-03-18T17:23:01.447Z,14.50
2023-03-18T17:28:38.144Z,14.40
2023-03-18T17:33:59.798Z,14.00
2023-03-18T17:39:21.525Z,14.10
2023-03-18T17:44:43.164Z,13.90
2023-03-18T17:50:05.231Z,13.20
2023-03-18T17:55:27.463Z,13.10
2023-03-18T18:00:49.692Z,12.80
2023-03-18T18:06:18.704Z,12.60
2023-03-18T18:11:44.569Z,12.40
2023-03-18T18:17:14.377Z,12.10
2023-03-18T18:22:47.300Z,11.80
2023-03-18T18:28:22.012Z,11.70
2023-03-18T18:33:45.647Z,11.60
2023-03-18T18:39:07.677Z,11.50
2023-03-18T18:44:29.611Z,11.20
2023-03-18T18:49:51.288Z,11.10
2023-03-18T18:55:13.102Z,10.80
2023-03-18T19:00:34.561Z,10.60
2023-03-18T19:05:56.515Z,10.50
2023-03-18T19:11:18.459Z,10.30
2023-03-18T19:16:40.123Z,10.20
2023-03-18T19:22:02.997Z,10.20
2023-03-18T19:27:27.570Z,10.10
2023-03-18T19:32:49.427Z,10.10
2023-03-18T19:38:19.443Z,10.00
2023-03-18T19:43:42.155Z,10.00
2023-03-18T19:49:12.755Z,9.90
2023-03-18T19:54:36.842Z,9.80
2023-03-18T20:00:00.897Z,9.80
2023-03-18T20:05:25.950Z,9.70
2023-03-18T20:10:51.490Z,9.60
2023-03-18T20:16:17.991Z,9.60
2023-03-18T20:21:39.903Z,9.60
2023-03-18T20:27:01.503Z,9.50
2023-03-18T20:32:23.309Z,9.40
2023-03-18T20:37:46.071Z,9.40
2023-03-18T20:43:10.527Z,9.40
2023-03-18T20:48:32.953Z,9.40
2023-03-18T20:53:55.340Z,9.20
2023-03-18T20:59:17.309Z,9.10
2023-03-18T21:04:39.114Z,9.10
2023-03-18T21:10:00.930Z,9.00
2023-03-18T21:15:29.090Z,9.00
2023-03-18T21:20:51.146Z,9.00
2023-03-18T21:26:13.168Z,9.00
2023-03-18T21:31:34.993Z,8.80
2023-03-18T21:36:57.510Z,8.90
2023-03-18T21:42:28.373Z,8.90
2023-03-18T21:47:49.840Z,8.80
2023-03-18T21:53:19.862Z,8.80
2023-03-18T21:58:41.507Z,8.70
2023-03-18T22:04:03.881Z,8.80
2023-03-18T22:09:26.832Z,8.80
2023-03-18T22:14:48.251Z,8.80
2023-03-18T22:20:11.522Z,8.80
2023-03-18T22:25:39.192Z,8.90
2023-03-18T22:31:03.332Z,8.90
2023-03-18T22:36:27.601Z,8.90
2023-03-18T22:41:49.474Z,9.00
2023-03-18T22:47:25.484Z,9.00
2023-03-18T22:52:49.917Z,8.90
2023-03-18T22:58:29.923Z,8.90
2023-03-18T23:03:51.557Z,8.90
2023-03-18T23:09:13.217Z,8.90
2023-03-18T23:14:34.951Z,8.90
2023-03-18T23:19:57.224Z,8.80
2023-03-18T23:25:18.947Z,8.90
2023-03-18T23:30:42.869Z,8.90
2023-03-18T23:36:04.778Z,8.70
2023-03-18T23:41:26.464Z,8.70
2023-03-18T23:46:49.173Z,8.80
2023-03-18T23:52:14.246Z,8.70
2023-03-18T23:57:35.754Z,8.70
